sensor_id;sensor_type;location;lat;lon;timestamp;pressure;altitude;pressure_sealevel;temperature;humidity
48652;BME280;34442;52.362;-1.302;2022-07-21T00:01:10;100692.63;;;17.79;97.97
48652;BME280;34442;52.362;-1.302;2022-07-21T00:03:36;100694.91;;;17.71;98.52
48652;BME280;34442;52.362;-1.302;2022-07-21T00:06:03;100698.06;;;17.79;98.08
48652;BME280;34442;52.362;-1.302;2022-07-21T00:08:29;100697.47;;;17.77;98.43
48652;BME280;34442;52.362;-1.302;2022-07-21T00:10:55;100703.19;;;17.93;97.45
48652;BME280;34442;52.362;-1.302;2022-07-21T00:13:22;100699.56;;;17.87;97.86
48652;BME280;34442;52.362;-1.302;2022-07-21T00:15:48;100701.69;;;17.85;98.38
48652;BME280;34442;52.362;-1.302;2022-07-21T00:18:16;100705.56;;;17.89;98.90
48652;BME280;34442;52.362;-1.302;2022-07-21T00:20:42;100707.31;;;17.78;98.65
48652;BME280;34442;52.362;-1.302;2022-07-21T00:23:09;100707.13;;;17.85;98.81
48652;BME280;34442;52.362;-1.302;2022-07-21T00:25:35;100708.28;;;17.89;97.90
48652;BME280;34442;52.362;-1.302;2022-07-21T00:28:03;100711.19;;;17.82;99.12
48652;BME280;34442;52.362;-1.302;2022-07-21T00:30:29;100710.44;;;17.87;98.69
48652;BME280;34442;52.362;-1.302;2022-07-21T00:32:55;100708.06;;;17.91;98.69
48652;BME280;34442;52.362;-1.302;2022-07-21T00:35:21;100705.81;;;17.88;98.69
48652;BME280;34442;52.362;-1.302;2022-07-21T00:37:47;100710.38;;;17.82;100.00
48652;BME280;34442;52.362;-1.302;2022-07-21T00:40:14;100704.66;;;17.83;99.03
48652;BME280;34442;52.362;-1.302;2022-07-21T00:42:42;100711.53;;;17.86;99.07
48652;BME280;34442;52.362;-1.302;2022-07-21T00:45:08;100712.00;;;17.83;99.85
48652;BME280;34442;52.362;-1.302;2022-07-21T00:47:36;100717.44;;;17.83;100.00
48652;BME280;34442;52.362;-1.302;2022-07-21T00:50:06;100717.78;;;17.87;99.38
48652;BME280;34442;52.362;-1.302;2022-07-21T00:52:32;100719.50;;;17.93;99.53
48652;BME280;34442;52.362;-1.302;2022-07-21T00:54:58;100712.97;;;17.94;99.56
48652;BME280;34442;52.362;-1.302;2022-07-21T00:57:25;100714.06;;;17.93;99.90
48652;BME280;34442;52.362;-1.302;2022-07-21T00:59:51;100715.22;;;17.80;100.00
48652;BME280;34442;52.362;-1.302;2022-07-21T01:02:17;100723.56;;;17.90;100.00
48652;BME280;34442;52.362;-1.302;2022-07-21T01:04:43;100708.41;;;17.94;100.00
48652;BME280;34442;52.362;-1.302;2022-07-21T01:07:09;100715.41;;;17.90;100.00
48652;BME280;34442;52.362;-1.302;2022-07-21T01:09:35;100716.72;;;17.88;100.00
48652;BME280;34442;52.362;-1.302;2022-07-21T01:12:02;100712.91;;;17.89;100.00
48652;BME280;34442;52.362;-1.302;2022-07-21T01:14:29;100712.34;;;17.87;100.00
48652;BME280;34442;52.362;-1.302;2022-07-21T01:16:55;100717.47;;;17.71;100.00
48652;BME280;34442;52.362;-1.302;2022-07-21T01:19:21;100710.84;;;17.79;100.00
48652;BME280;34442;52.362;-1.302;2022-07-21T01:21:48;100715.56;;;17.83;100.00
48652;BME280;34442;52.362;-1.302;2022-07-21T01:24:15;100723.97;;;17.82;100.00
48652;BME280;34442;52.362;-1.302;2022-07-21T01:26:46;100717.22;;;17.73;100.00
48652;BME280;34442;52.362;-1.302;2022-07-21T01:29:13;100725.56;;;17.66;100.00
48652;BME280;34442;52.362;-1.302;2022-07-21T01:31:41;100720.13;;;17.66;100.00
48652;BME280;34442;52.362;-1.302;2022-07-21T01:34:08;100722.75;;;17.61;100.00
48652;BME280;34442;52.362;-1.302;2022-07-21T01:36:35;100730.19;;;17.66;100.00
48652;BME280;34442;52.362;-1.302;2022-07-21T01:39:02;100726.88;;;17.64;100.00
48652;BME280;34442;52.362;-1.302;2022-07-21T01:41:46;100728.84;;;17.68;100.00
48652;BME280;34442;52.362;-1.302;2022-07-21T01:44:13;100735.84;;;17.64;100.00
48652;BME280;34442;52.362;-1.302;2022-07-21T01:46:42;100735.63;;;17.66;100.00
48652;BME280;34442;52.362;-1.302;2022-07-21T01:49:11;100739.72;;;17.68;100.00
48652;BME280;34442;52.362;-1.302;2022-07-21T01:51:38;100735.34;;;17.67;100.00
48652;BME280;34442;52.362;-1.302;2022-07-21T01:54:05;100730.75;;;17.68;100.00
48652;BME280;34442;52.362;-1.302;2022-07-21T01:56:33;100738.16;;;17.72;100.00
48652;BME280;34442;52.362;-1.302;2022-07-21T01:59:00;100730.38;;;17.76;100.00
48652;BME280;34442;52.362;-1.302;2022-07-21T02:01:27;100738.66;;;17.69;100.00
48652;BME280;34442;52.362;-1.302;2022-07-21T02:03:57;100735.22;;;17.74;100.00
48652;BME280;34442;52.362;-1.302;2022-07-21T02:06:24;100736.16;;;17.79;100.00
48652;BME280;34442;52.362;-1.302;2022-07-21T02:08:50;100740.03;;;17.83;100.00
48652;BME280;34442;52.362;-1.302;2022-07-21T02:11:17;100731.56;;;17.68;100.00
48652;BME280;34442;52.362;-1.302;2022-07-21T02:13:44;100728.84;;;17.68;100.00
48652;BME280;34442;52.362;-1.302;2022-07-21T02:16:10;100733.53;;;17.73;100.00
48652;BME280;34442;52.362;-1.302;2022-07-21T02:18:37;100733.81;;;17.71;100.00
48652;BME280;34442;52.362;-1.302;2022-07-21T02:21:04;100735.00;;;17.75;100.00
48652;BME280;34442;52.362;-1.302;2022-07-21T02:23:32;100736.16;;;17.79;100.00
48652;BME280;34442;52.362;-1.302;2022-07-21T02:25:58;100731.53;;;17.80;100.00
48652;BME280;34442;52.362;-1.302;2022-07-21T02:28:25;100722.66;;;17.73;100.00
48652;BME280;34442;52.362;-1.302;2022-07-21T02:30:52;100726.03;;;17.63;100.00
48652;BME280;34442;52.362;-1.302;2022-07-21T02:33:19;100727.19;;;17.67;100.00
48652;BME280;34442;52.362;-1.302;2022-07-21T02:35:46;100729.91;;;17.67;100.00
48652;BME280;34442;52.362;-1.302;2022-07-21T02:38:12;100729.84;;;17.62;100.00
48652;BME280;34442;52.362;-1.302;2022-07-21T02:40:39;100728.75;;;17.63;100.00
48652;BME280;34442;52.362;-1.302;2022-07-21T02:43:06;100736.56;;;17.59;100.00
48652;BME280;34442;52.362;-1.302;2022-07-21T02:45:33;100727.59;;;17.59;100.00
48652;BME280;34442;52.362;-1.302;2022-07-21T02:48:04;100734.47;;;17.61;100.00
48652;BME280;34442;52.362;-1.302;2022-07-21T02:50:32;100726.56;;;17.48;100.00
48652;BME280;34442;52.362;-1.302;2022-07-21T02:53:01;100740.03;;;17.55;100.00
48652;BME280;34442;52.362;-1.302;2022-07-21T02:55:27;100733.53;;;17.56;100.00
48652;BME280;34442;52.362;-1.302;2022-07-21T02:58:08;100733.63;;;17.61;100.00
48652;BME280;34442;52.362;-1.302;2022-07-21T03:00:40;100740.72;;;17.62;100.00
48652;BME280;34442;52.362;-1.302;2022-07-21T03:03:07;100734.19;;;17.63;100.00
48652;BME280;34442;52.362;-1.302;2022-07-21T03:05:34;100739.63;;;17.63;100.00
48652;BME280;34442;52.362;-1.302;2022-07-21T03:08:01;100742.28;;;17.58;100.00
48652;BME280;34442;52.362;-1.302;2022-07-21T03:10:27;100739.63;;;17.63;100.00
48652;BME280;34442;52.362;-1.302;2022-07-21T03:12:53;100738.38;;;17.54;100.00
48652;BME280;34442;52.362;-1.302;2022-07-21T03:15:19;100742.34;;;17.63;100.00
48652;BME280;34442;52.362;-1.302;2022-07-21T03:17:45;100736.97;;;17.51;100.00
48652;BME280;34442;52.362;-1.302;2022-07-21T03:20:12;100735.19;;;17.57;100.00
48652;BME280;34442;52.362;-1.302;2022-07-21T03:22:38;100740.28;;;17.53;100.00
48652;BME280;34442;52.362;-1.302;2022-07-21T03:25:04;100733.53;;;17.56;100.00
48652;BME280;34442;52.362;-1.302;2022-07-21T03:27:31;100740.94;;;17.60;100.00
48652;BME280;34442;52.362;-1.302;2022-07-21T03:30:06;100742.69;;;17.67;100.00
48652;BME280;34442;52.362;-1.302;2022-07-21T03:32:34;100740.19;;;17.65;100.00
48652;BME280;34442;52.362;-1.302;2022-07-21T03:35:01;100749.94;;;17.61;100.00
48652;BME280;34442;52.362;-1.302;2022-07-21T03:37:27;100740.72;;;17.62;100.00
48652;BME280;34442;52.362;-1.302;2022-07-21T03:39:54;100744.50;;;17.61;100.00
48652;BME280;34442;52.362;-1.302;2022-07-21T03:42:20;100745.94;;;17.52;100.00
48652;BME280;34442;52.362;-1.302;2022-07-21T03:44:46;100734.47;;;17.61;100.00
48652;BME280;34442;52.362;-1.302;2022-07-21T03:47:12;100747.78;;;17.63;100.00
48652;BME280;34442;52.362;-1.302;2022-07-21T03:49:39;100744.91;;;17.53;100.00
48652;BME280;34442;52.362;-1.302;2022-07-21T03:52:05;100749.19;;;17.49;100.00
48652;BME280;34442;52.362;-1.302;2022-07-21T03:54:31;100750.09;;;17.54;100.00
48652;BME280;34442;52.362;-1.302;2022-07-21T03:56:57;100746.38;;;17.60;100.00
48652;BME280;34442;52.362;-1.302;2022-07-21T03:59:23;100753.19;;;17.46;100.00
48652;BME280;34442;52.362;-1.302;2022-07-21T04:01:49;100753.06;;;17.53;100.00
48652;BME280;34442;52.362;-1.302;2022-07-21T04:04:15;100756.69;;;17.58;100.00
48652;BME280;34442;52.362;-1.302;2022-07-21T04:06:41;100747.72;;;17.58;100.00
48652;BME280;34442;52.362;-1.302;2022-07-21T04:09:07;100743.56;;;17.55;100.00
48652;BME280;34442;52.362;-1.302;2022-07-21T04:11:33;100748.38;;;17.65;100.00
48652;BME280;34442;52.362;-1.302;2022-07-21T04:13:59;100752.41;;;17.63;100.00
48652;BME280;34442;52.362;-1.302;2022-07-21T04:16:25;100758.59;;;17.58;100.00
48652;BME280;34442;52.362;-1.302;2022-07-21T04:18:52;100752.38;;;17.46;100.00
48652;BME280;34442;52.362;-1.302;2022-07-21T04:21:18;100763.38;;;17.39;100.00
48652;BME280;34442;52.362;-1.302;2022-07-21T04:23:45;100759.09;;;17.43;100.00
48652;BME280;34442;52.362;-1.302;2022-07-21T04:26:11;100760.66;;;17.39;100.00
48652;BME280;34442;52.362;-1.302;2022-07-21T04:28:37;100762.91;;;17.42;100.00
48652;BME280;34442;52.362;-1.302;2022-07-21T04:31:03;100761.34;;;17.46;100.00
48652;BME280;34442;52.362;-1.302;2022-07-21T04:33:29;100766.53;;;17.48;100.00
48652;BME280;34442;52.362;-1.302;2022-07-21T04:35:55;100775.38;;;17.55;100.00
48652;BME280;34442;52.362;-1.302;2022-07-21T04:38:21;100774.34;;;17.44;100.00
48652;BME280;34442;52.362;-1.302;2022-07-21T04:40:47;100780.38;;;17.46;100.00
48652;BME280;34442;52.362;-1.302;2022-07-21T04:43:13;100782.22;;;17.29;100.00
48652;BME280;34442;52.362;-1.302;2022-07-21T04:45:39;100786.31;;;17.31;100.00
48652;BME280;34442;52.362;-1.302;2022-07-21T04:48:05;100781.63;;;17.27;100.00
48652;BME280;34442;52.362;-1.302;2022-07-21T04:50:31;100789.19;;;17.25;100.00
48652;BME280;34442;52.362;-1.302;2022-07-21T04:52:58;100789.50;;;17.40;100.00
48652;BME280;34442;52.362;-1.302;2022-07-21T04:55:24;100789.03;;;17.31;100.00
48652;BME280;34442;52.362;-1.302;2022-07-21T04:57:52;100792.94;;;17.35;100.00
48652;BME280;34442;52.362;-1.302;2022-07-21T05:00:23;100797.69;;;17.28;100.00
48652;BME280;34442;52.362;-1.302;2022-07-21T05:02:50;100793.91;;;17.29;100.00
48652;BME280;34442;52.362;-1.302;2022-07-21T05:05:17;100793.91;;;17.29;100.00
48652;BME280;34442;52.362;-1.302;2022-07-21T05:07:44;100798.03;;;17.32;100.00
48652;BME280;34442;52.362;-1.302;2022-07-21T05:10:12;100809.50;;;17.22;100.00
48652;BME280;34442;52.362;-1.302;2022-07-21T05:12:38;100807.50;;;17.29;100.00
48652;BME280;34442;52.362;-1.302;2022-07-21T05:15:06;100806.53;;;17.35;100.00
48652;BME280;34442;52.362;-1.302;2022-07-21T05:17:33;100809.50;;;17.34;100.00
48652;BME280;34442;52.362;-1.302;2022-07-21T05:20:00;100810.19;;;17.41;100.00
48652;BME280;34442;52.362;-1.302;2022-07-21T05:22:27;100808.41;;;17.35;100.00
48652;BME280;34442;52.362;-1.302;2022-07-21T05:24:53;100806.53;;;17.35;100.00
48652;BME280;34442;52.362;-1.302;2022-07-21T05:27:19;100809.41;;;17.29;100.00
48652;BME280;34442;52.362;-1.302;2022-07-21T05:29:45;100810.56;;;17.33;100.00
48652;BME280;34442;52.362;-1.302;2022-07-21T05:32:11;100813.47;;;17.43;100.00
48652;BME280;34442;52.362;-1.302;2022-07-21T05:34:37;100813.63;;;17.36;100.00
48652;BME280;34442;52.362;-1.302;2022-07-21T05:37:03;100823.44;;;17.38;100.00
48652;BME280;34442;52.362;-1.302;2022-07-21T05:39:29;100821.28;;;17.40;100.00
48652;BME280;34442;52.362;-1.302;2022-07-21T05:41:55;100827.06;;;17.43;100.00
48652;BME280;34442;52.362;-1.302;2022-07-21T05:44:21;100841.84;;;17.35;100.00
48652;BME280;34442;52.362;-1.302;2022-07-21T05:46:47;100835.13;;;17.38;100.00
48652;BME280;34442;52.362;-1.302;2022-07-21T05:49:13;100826.97;;;17.38;100.00
48652;BME280;34442;52.362;-1.302;2022-07-21T05:51:39;100830.84;;;17.42;100.00
48652;BME280;34442;52.362;-1.302;2022-07-21T05:54:05;100835.00;;;17.45;100.00
48652;BME280;34442;52.362;-1.302;2022-07-21T05:56:31;100833.31;;;17.44;100.00
48652;BME280;34442;52.362;-1.302;2022-07-21T05:58:58;100834.19;;;17.32;100.00
48652;BME280;34442;52.362;-1.302;2022-07-21T06:01:24;100837.75;;;17.21;100.00
48652;BME280;34442;52.362;-1.302;2022-07-21T06:03:50;100833.41;;;17.20;100.00
48652;BME280;34442;52.362;-1.302;2022-07-21T06:06:19;100833.50;;;17.25;100.00
48652;BME280;34442;52.362;-1.302;2022-07-21T06:08:47;100838.22;;;17.30;100.00
48652;BME280;34442;52.362;-1.302;2022-07-21T06:11:15;100842.13;;;17.22;100.00
48652;BME280;34442;52.362;-1.302;2022-07-21T06:13:42;100847.78;;;17.32;100.00
48652;BME280;34442;52.362;-1.302;2022-07-21T06:16:08;100851.34;;;17.33;100.00
48652;BME280;34442;52.362;-1.302;2022-07-21T06:18:35;100858.41;;;17.34;100.00
48652;BME280;34442;52.362;-1.302;2022-07-21T06:21:01;100856.88;;;17.38;100.00
48652;BME280;34442;52.362;-1.302;2022-07-21T06:23:27;100869.66;;;17.26;100.00
48652;BME280;34442;52.362;-1.302;2022-07-21T06:25:54;100856.88;;;17.26;100.00
48652;BME280;34442;52.362;-1.302;2022-07-21T06:28:21;100856.44;;;17.18;100.00
48652;BME280;34442;52.362;-1.302;2022-07-21T06:30:48;100866.22;;;17.19;100.00
48652;BME280;34442;52.362;-1.302;2022-07-21T06:33:14;100861.25;;;17.27;100.00
48652;BME280;34442;52.362;-1.302;2022-07-21T06:35:42;100865.50;;;17.23;100.00
48652;BME280;34442;52.362;-1.302;2022-07-21T06:38:08;100866.19;;;17.42;100.00
48652;BME280;34442;52.362;-1.302;2022-07-21T06:40:34;100873.50;;;17.53;100.00
48652;BME280;34442;52.362;-1.302;2022-07-21T06:43:00;100876.81;;;17.44;100.00
48652;BME280;34442;52.362;-1.302;2022-07-21T06:45:26;100882.25;;;17.44;100.00
48652;BME280;34442;52.362;-1.302;2022-07-21T06:48:05;100879.53;;;17.44;100.00
48652;BME280;34442;52.362;-1.302;2022-07-21T06:50:31;100888.28;;;17.46;100.00
48652;BME280;34442;52.362;-1.302;2022-07-21T06:52:58;100888.19;;;17.41;100.00
48652;BME280;34442;52.362;-1.302;2022-07-21T06:55:24;100892.09;;;17.45;100.00
48652;BME280;34442;52.362;-1.302;2022-07-21T06:57:50;100882.97;;;17.39;100.00
48652;BME280;34442;52.362;-1.302;2022-07-21T07:00:16;100892.19;;;17.38;100.00
48652;BME280;34442;52.362;-1.302;2022-07-21T07:02:42;100897.06;;;17.24;100.00
48652;BME280;34442;52.362;-1.302;2022-07-21T07:05:09;100892.81;;;17.28;100.00
48652;BME280;34442;52.362;-1.302;2022-07-21T07:07:35;100902.84;;;17.28;100.00
48652;BME280;34442;52.362;-1.302;2022-07-21T07:10:01;100900.00;;;17.34;100.00
48652;BME280;34442;52.362;-1.302;2022-07-21T07:12:28;100897.53;;;17.33;100.00
48652;BME280;34442;52.362;-1.302;2022-07-21T07:14:54;100907.91;;;17.36;100.00
48652;BME280;34442;52.362;-1.302;2022-07-21T07:17:20;100904.25;;;17.42;100.00
48652;BME280;34442;52.362;-1.302;2022-07-21T07:19:47;100906.72;;;17.44;100.00
48652;BME280;34442;52.362;-1.302;2022-07-21T07:22:14;100915.03;;;17.37;100.00
48652;BME280;34442;52.362;-1.302;2022-07-21T07:24:40;100919.13;;;17.40;100.00
48652;BME280;34442;52.362;-1.302;2022-07-21T07:27:07;100922.91;;;17.39;100.00
48652;BME280;34442;52.362;-1.302;2022-07-21T07:29:33;100927.06;;;17.41;100.00
48652;BME280;34442;52.362;-1.302;2022-07-21T07:31:59;100929.91;;;17.34;100.00
48652;BME280;34442;52.362;-1.302;2022-07-21T07:34:25;100940.66;;;17.18;100.00
48652;BME280;34442;52.362;-1.302;2022-07-21T07:36:51;100933.34;;;17.18;100.00
48652;BME280;34442;52.362;-1.302;2022-07-21T07:39:17;100921.38;;;17.31;100.00
48652;BME280;34442;52.362;-1.302;2022-07-21T07:41:43;100931.56;;;17.12;100.00
48652;BME280;34442;52.362;-1.302;2022-07-21T07:44:10;100924.72;;;17.21;100.00
48652;BME280;34442;52.362;-1.302;2022-07-21T07:46:36;100924.94;;;17.20;100.00
48652;BME280;34442;52.362;-1.302;2022-07-21T07:49:02;100932.41;;;17.24;100.00
48652;BME280;34442;52.362;-1.302;2022-07-21T07:51:28;100931.44;;;17.19;100.00
48652;BME280;34442;52.362;-1.302;2022-07-21T07:53:54;100924.72;;;17.21;100.00
48652;BME280;34442;52.362;-1.302;2022-07-21T07:56:20;100935.44;;;17.28;100.00
48652;BME280;34442;52.362;-1.302;2022-07-21T07:58:46;100939.13;;;17.22;100.00
48652;BME280;34442;52.362;-1.302;2022-07-21T08:01:13;100940.66;;;17.18;100.00
48652;BME280;34442;52.362;-1.302;2022-07-21T08:03:40;100950.94;;;17.16;100.00
48652;BME280;34442;52.362;-1.302;2022-07-21T08:06:07;100945.16;;;17.12;100.00
48652;BME280;34442;52.362;-1.302;2022-07-21T08:08:33;100945.63;;;17.21;100.00
48652;BME280;34442;52.362;-1.302;2022-07-21T08:10:59;100946.22;;;17.34;100.00
48652;BME280;34442;52.362;-1.302;2022-07-21T08:13:26;100950.47;;;17.30;100.00
48652;BME280;34442;52.362;-1.302;2022-07-21T08:15:52;100952.25;;;17.36;100.00
48652;BME280;34442;52.362;-1.302;2022-07-21T08:18:19;100958.16;;;17.45;100.00
48652;BME280;34442;52.362;-1.302;2022-07-21T08:20:46;100957.91;;;17.35;100.00
48652;BME280;34442;52.362;-1.302;2022-07-21T08:23:13;100953.66;;;17.27;100.00
48652;BME280;34442;52.362;-1.302;2022-07-21T08:25:40;100955.66;;;17.32;100.00
48652;BME280;34442;52.362;-1.302;2022-07-21T08:28:06;100958.50;;;17.25;100.00
48652;BME280;34442;52.362;-1.302;2022-07-21T08:30:32;100952.09;;;17.20;100.00
48652;BME280;34442;52.362;-1.302;2022-07-21T08:32:59;100950.72;;;17.17;100.00
48652;BME280;34442;52.362;-1.302;2022-07-21T08:35:26;100961.13;;;17.20;100.00
48652;BME280;34442;52.362;-1.302;2022-07-21T08:37:54;100961.34;;;17.19;100.00
48652;BME280;34442;52.362;-1.302;2022-07-21T08:40:23;100956.59;;;17.14;100.00
48652;BME280;34442;52.362;-1.302;2022-07-21T08:42:50;100957.78;;;17.18;100.00
48652;BME280;34442;52.362;-1.302;2022-07-21T08:45:16;100962.03;;;17.14;100.00
48652;BME280;34442;52.362;-1.302;2022-07-21T08:47:42;100972.06;;;17.02;100.00
48652;BME280;34442;52.362;-1.302;2022-07-21T08:50:08;100969.94;;;16.92;100.00
48652;BME280;34442;52.362;-1.302;2022-07-21T08:52:35;100960.47;;;16.95;100.00
48652;BME280;34442;52.362;-1.302;2022-07-21T08:55:02;100962.50;;;16.99;100.00
48652;BME280;34442;52.362;-1.302;2022-07-21T08:57:28;100968.78;;;17.00;100.00
48652;BME280;34442;52.362;-1.302;2022-07-21T08:59:54;100962.97;;;16.96;100.00
48652;BME280;34442;52.362;-1.302;2022-07-21T09:02:29;100971.50;;;17.00;100.00
48652;BME280;34442;52.362;-1.302;2022-07-21T09:04:55;100976.28;;;16.86;100.00
48652;BME280;34442;52.362;-1.302;2022-07-21T09:07:22;100977.84;;;16.94;100.00
48652;BME280;34442;52.362;-1.302;2022-07-21T09:09:56;100980.69;;;16.99;100.00
48652;BME280;34442;52.362;-1.302;2022-07-21T09:12:27;100982.47;;;16.93;100.00
48652;BME280;34442;52.362;-1.302;2022-07-21T09:15:17;100990.13;;;16.84;100.00
48652;BME280;34442;52.362;-1.302;2022-07-21T09:17:44;100985.63;;;16.90;100.00
48652;BME280;34442;52.362;-1.302;2022-07-21T09:20:24;100983.06;;;16.95;100.00
48652;BME280;34442;52.362;-1.302;2022-07-21T09:25:55;100985.19;;;17.05;100.00
48652;BME280;34442;52.362;-1.302;2022-07-21T09:28:24;101001.97;;;17.14;100.00
48652;BME280;34442;52.362;-1.302;2022-07-21T09:31:29;101004.94;;;17.12;100.00
48652;BME280;34442;52.362;-1.302;2022-07-21T09:33:48;101004.22;;;17.17;100.00
48652;BME280;34442;52.362;-1.302;2022-07-21T09:36:16;101005.25;;;17.16;100.00
48652;BME280;34442;52.362;-1.302;2022-07-21T09:38:49;101008.13;;;17.21;100.00
48652;BME280;34442;52.362;-1.302;2022-07-21T09:41:21;101010.03;;;17.20;100.00
48652;BME280;34442;52.362;-1.302;2022-07-21T09:43:49;101006.34;;;17.15;100.00
48652;BME280;34442;52.362;-1.302;2022-07-21T09:46:26;101005.84;;;17.06;100.00
48652;BME280;34442;52.362;-1.302;2022-07-21T09:48:59;101001.38;;;17.11;100.00
48652;BME280;34442;52.362;-1.302;2022-07-21T09:51:35;101014.56;;;16.84;100.00
48652;BME280;34442;52.362;-1.302;2022-07-21T09:54:07;101007.75;;;17.05;100.00
48652;BME280;34442;52.362;-1.302;2022-07-21T09:56:39;101009.19;;;17.08;100.00
48652;BME280;34442;52.362;-1.302;2022-07-21T09:59:07;101018.25;;;17.02;100.00
48652;BME280;34442;52.362;-1.302;2022-07-21T10:01:34;101010.50;;;17.17;100.00
48652;BME280;34442;52.362;-1.302;2022-07-21T10:04:04;101016.34;;;17.02;100.00
48652;BME280;34442;52.362;-1.302;2022-07-21T10:06:33;101018.25;;;17.02;100.00
48652;BME280;34442;52.362;-1.302;2022-07-21T10:09:00;101014.72;;;17.13;100.00
48652;BME280;34442;52.362;-1.302;2022-07-21T10:11:27;101018.97;;;17.09;100.00
48652;BME280;34442;52.362;-1.302;2022-07-21T10:13:54;101019.81;;;17.21;100.00
48652;BME280;34442;52.362;-1.302;2022-07-21T10:16:20;101019.69;;;17.28;100.00
48652;BME280;34442;52.362;-1.302;2022-07-21T10:18:58;101024.81;;;17.24;100.00
48652;BME280;34442;52.362;-1.302;2022-07-21T10:21:35;101019.47;;;17.29;100.00
48652;BME280;34442;52.362;-1.302;2022-07-21T10:24:03;101027.97;;;17.09;100.00
48652;BME280;34442;52.362;-1.302;2022-07-21T10:26:31;101027.38;;;17.19;100.00
48652;BME280;34442;52.362;-1.302;2022-07-21T10:28:57;101029.53;;;17.29;100.00
48652;BME280;34442;52.362;-1.302;2022-07-21T10:31:25;101027.16;;;17.21;100.00
48652;BME280;34442;52.362;-1.302;2022-07-21T10:34:02;101031.25;;;17.11;100.00
48652;BME280;34442;52.362;-1.302;2022-07-21T10:41:47;101033.16;;;17.23;100.00
48652;BME280;34442;52.362;-1.302;2022-07-21T10:47:22;101024.19;;;17.22;100.00
48652;BME280;34442;52.362;-1.302;2022-07-21T10:50:01;101020.16;;;17.13;100.00
48652;BME280;34442;52.362;-1.302;2022-07-21T10:57:43;101036.69;;;17.11;100.00
48652;BME280;34442;52.362;-1.302;2022-07-21T11:02:58;101032.31;;;17.10;100.00
48652;BME280;34442;52.362;-1.302;2022-07-21T11:05:27;101033.50;;;17.15;100.00
48652;BME280;34442;52.362;-1.302;2022-07-21T11:08:17;101041.78;;;17.20;100.00
48652;BME280;34442;52.362;-1.302;2022-07-21T11:10:46;101033.16;;;17.11;100.00
48652;BME280;34442;52.362;-1.302;2022-07-21T11:13:14;101038.13;;;17.14;100.00
48652;BME280;34442;52.362;-1.302;2022-07-21T11:15:55;101032.59;;;17.21;100.00
48652;BME280;34442;52.362;-1.302;2022-07-21T11:18:25;101033.03;;;17.18;100.00
48652;BME280;34442;52.362;-1.302;2022-07-21T11:21:14;101037.41;;;17.19;100.00
48652;BME280;34442;52.362;-1.302;2022-07-21T11:23:46;101039.91;;;17.20;100.00
48652;BME280;34442;52.362;-1.302;2022-07-21T11:26:18;101034.00;;;17.35;100.00
48652;BME280;34442;52.362;-1.302;2022-07-21T11:28:45;101033.53;;;17.38;100.00
48652;BME280;34442;52.362;-1.302;2022-07-21T11:31:14;101035.19;;;17.51;100.00
48652;BME280;34442;52.362;-1.302;2022-07-21T11:33:44;101031.31;;;17.58;100.00
48652;BME280;34442;52.362;-1.302;2022-07-21T11:36:22;101024.56;;;17.61;100.00
48652;BME280;34442;52.362;-1.302;2022-07-21T11:39:08;101030.97;;;17.78;100.00
48652;BME280;34442;52.362;-1.302;2022-07-21T11:41:36;101030.47;;;17.70;100.00
48652;BME280;34442;52.362;-1.302;2022-07-21T11:44:04;101023.84;;;17.89;100.00
48652;BME280;34442;52.362;-1.302;2022-07-21T11:46:54;101023.47;;;17.97;100.00
48652;BME280;34442;52.362;-1.302;2022-07-21T11:49:21;101011.63;;;18.03;100.00
48652;BME280;34442;52.362;-1.302;2022-07-21T11:51:49;101014.91;;;18.17;100.00
48652;BME280;34442;52.362;-1.302;2022-07-21T11:56:52;101017.72;;;18.51;100.00
48652;BME280;34442;52.362;-1.302;2022-07-21T11:59:18;101009.59;;;18.68;100.00
48652;BME280;34442;52.362;-1.302;2022-07-21T12:01:51;101011.81;;;18.82;100.00
48652;BME280;34442;52.362;-1.302;2022-07-21T12:07:06;101007.25;;;18.88;100.00
48652;BME280;34442;52.362;-1.302;2022-07-21T12:09:33;101001.72;;;18.83;100.00
48652;BME280;34442;52.362;-1.302;2022-07-21T12:11:59;101004.22;;;18.84;100.00
48652;BME280;34442;52.362;-1.302;2022-07-21T12:17:07;101015.28;;;18.78;100.00
48652;BME280;34442;52.362;-1.302;2022-07-21T12:19:34;101014.47;;;18.77;100.00
48652;BME280;34442;52.362;-1.302;2022-07-21T12:22:00;101010.72;;;18.83;100.00
48652;BME280;34442;52.362;-1.302;2022-07-21T12:24:49;101005.88;;;19.02;100.00
48652;BME280;34442;52.362;-1.302;2022-07-21T12:27:16;101009.09;;;19.16;100.00
48652;BME280;34442;52.362;-1.302;2022-07-21T12:29:43;101009.50;;;19.25;100.00
48652;BME280;34442;52.362;-1.302;2022-07-21T12:32:09;101011.16;;;19.43;100.00
48652;BME280;34442;52.362;-1.302;2022-07-21T12:34:49;101002.22;;;19.47;100.00
48652;BME280;34442;52.362;-1.302;2022-07-21T12:37:16;101002.03;;;19.54;100.00
48652;BME280;34442;52.362;-1.302;2022-07-21T12:40:00;101005.28;;;19.51;100.00
48652;BME280;34442;52.362;-1.302;2022-07-21T12:42:32;101005.63;;;19.54;100.00
48652;BME280;34442;52.362;-1.302;2022-07-21T12:44:59;101009.81;;;19.62;100.00
48652;BME280;34442;52.362;-1.302;2022-07-21T12:47:26;101007.31;;;19.61;100.00
48652;BME280;34442;52.362;-1.302;2022-07-21T12:50:02;101000.44;;;19.75;100.00
48652;BME280;34442;52.362;-1.302;2022-07-21T12:52:29;100995.97;;;19.86;100.00
48652;BME280;34442;52.362;-1.302;2022-07-21T12:54:59;100999.34;;;19.93;100.00
48652;BME280;34442;52.362;-1.302;2022-07-21T12:57:27;100995.34;;;20.00;100.00
48652;BME280;34442;52.362;-1.302;2022-07-21T12:59:55;100999.72;;;20.01;100.00
48652;BME280;34442;52.362;-1.302;2022-07-21T13:02:21;100996.59;;;19.93;100.00